Buoy 51627

sailwx.info

Track history (hours):
 
Tides and Currents Weather Stations Pressure Air Temp Water Temp Dewpoint Dewpoint Depression Visibility Wind Speed Wind Dir Waves Ship Positions

Drifting buoy 51627

Last reported at 2016-Jul-01 17:00 UTC. Time now 2016-Jul-01 19:01 UTC.
Position N 18°01' E 135°28'.

Water temperature 30.1 ° C

Date/timePositionNaut miles runAvg speedWind from/ knotsBaromVisibWave heightAir tempDewpointWater temp
2016-Jul-01 17:00N 18°01' E 135°28'0 0.0 30.1
2016-Jul-01 16:00N 18°01' E 135°28'1 0.5 30.1
2016-Jul-01 13:00N 18°02' E 135°29'1 0.5 30.2
2016-Jul-01 12:00N 18°02' E 135°30'0 0.4 30.3
2016-Jul-01 11:00N 18°01' E 135°30'1 0.6 30.3
2016-Jul-01 10:00N 18°01' E 135°30'0 0.2 30.3
2016-Jul-01 09:00N 18°01' E 135°30'1 0.7 30.4
2016-Jul-01 08:00N 18°00' E 135°31'2 1.7 30.4
2016-Jul-01 07:00N 17°60' E 135°32'2 1.7 30.5
2016-Jul-01 06:00N 17°60' E 135°34'0 0.0 30.5
2016-Jul-01 05:00N 17°60' E 135°34'0 0.0 30.4
2016-Jul-01 04:00N 17°60' E 135°34'3 0.9 30.3
2016-Jul-01 01:00N 18°01' E 135°37'1 0.7 30.1
2016-Jul-01 00:00N 18°01' E 135°37'1 0.8 30.1
2016-Jun-30 23:00N 18°02' E 135°38'0 0.2 30.0
2016-Jun-30 21:00N 18°02' E 135°38'1 0.7 30.0
2016-Jun-30 20:00N 18°03' E 135°39'0 0.4 30.0
2016-Jun-30 19:00N 18°03' E 135°38'1 0.8 30.0
2016-Jun-30 18:00N 18°03' E 135°39'0 0.2 30.0
2016-Jun-30 17:00N 18°03' E 135°39'0 0.0 30.0
2016-Jun-30 16:00N 18°03' E 135°39'2 0.7 30.0
2016-Jun-30 13:00N 18°04' E 135°40'0 0.4 30.1
2016-Jun-30 12:00N 18°04' E 135°41'0 0.0 30.1
2016-Jun-30 11:00N 18°04' E 135°41'1 0.4 30.1
2016-Jun-30 09:00N 18°04' E 135°41'2 1.8 30.1
2016-Jun-30 08:00N 18°03' E 135°43'0 0.0 30.2
2016-Jun-30 07:00N 18°03' E 135°43'1 0.7 30.2
2016-Jun-30 06:00N 18°03' E 135°44'2 0.9 30.2
2016-Jun-30 04:00N 18°03' E 135°46'0 0.0 30.2
2016-Jun-30 01:00N 18°03' E 135°46'0 0.5 30.0
2016-Jun-30 00:00N 18°03' E 135°46'1 0.6 30.0
2016-Jun-29 23:00N 18°03' E 135°47'0 0.2 30.0
2016-Jun-29 22:00N 18°03' E 135°47'1 0.7 30.0
2016-Jun-29 21:00N 18°03' E 135°47'1 0.8 30.0
2016-Jun-29 20:00N 18°03' E 135°48'0 0.0 30.0
2016-Jun-29 19:00N 18°03' E 135°48'1 0.6 30.0
2016-Jun-29 17:00N 18°04' E 135°49'1 0.2 30.0
2016-Jun-29 12:00N 18°04' E 135°50'0 0.5 30.0
2016-Jun-29 11:00N 18°04' E 135°50'0 0.4 30.0
2016-Jun-29 10:00N 18°04' E 135°51'1 1.0 30.1
2016-Jun-29 09:00N 18°03' E 135°52'1 1.1 30.1
2016-Jun-29 08:00N 18°03' E 135°53'1 1.1 30.2
2016-Jun-29 07:00N 18°03' E 135°54'1 1.0 30.2
2016-Jun-29 06:00N 18°03' E 135°55'0 0.0 30.2
2016-Jun-29 05:00N 18°03' E 135°55'0 0.0 30.2
2016-Jun-29 04:00N 18°03' E 135°55'1 0.5 30.2
2016-Jun-29 01:00N 18°03' E 135°56'0 0.1 30.0
2016-Jun-29 00:00N 18°03' E 135°56'0 0.0 29.9
2016-Jun-28 23:00N 18°03' E 135°56'0 0.2 29.9
2016-Jun-28 22:00N 18°03' E 135°57'0 0.3 29.9
2016-Jun-28 21:00N 18°03' E 135°57'0 0.3 29.9
2016-Jun-28 20:00N 18°03' E 135°57'0 0.3 29.9
2016-Jun-28 19:00N 18°03' E 135°57'1 0.5 29.9
2016-Jun-28 17:00N 18°03' E 135°58'2 0.2 29.9
2016-Jun-28 08:00N 18°02' E 136°00'0 0.4 30.0
2016-Jun-28 07:00N 18°02' E 136°00'2 0.5 30.1
2016-Jun-28 04:00N 18°01' E 136°02'2 0.5 30.0
2016-Jun-28 00:00N 18°02' E 136°04'1 0.3 29.9
2016-Jun-27 22:00N 18°01' E 136°05'0 0.0 29.9
2016-Jun-27 21:00N 18°01' E 136°05'1 0.9 29.9
2016-Jun-27 20:00N 18°01' E 136°06'0 0.0 29.9
2016-Jun-27 19:00N 18°01' E 136°06'0 0.0 29.9
2016-Jun-27 18:00N 18°01' E 136°06'0 0.1 29.9
2016-Jun-27 17:00N 18°01' E 136°06'2 0.6 29.9
2016-Jun-27 13:00N 18°02' E 136°08'0 0.2 29.9
2016-Jun-27 12:00N 18°02' E 136°08'1 0.6 30.0
2016-Jun-27 11:00N 18°01' E 136°08'0 0.0 30.0
2016-Jun-27 10:00N 18°01' E 136°08'0 0.5 30.1
2016-Jun-27 09:00N 18°01' E 136°09'1 0.9 30.1
2016-Jun-27 08:00N 18°00' E 136°08'5 1.6 30.1
2016-Jun-27 05:00N 17°58' E 136°13'2 0.2 30.2
2016-Jun-26 21:00N 17°58' E 136°15'0 0.1 30.0
2016-Jun-26 20:00N 17°58' E 136°15'1 0.3 30.0
2016-Jun-26 18:00N 17°58' E 136°15'0 0.0 30.0
2016-Jun-26 17:00N 17°58' E 136°15'1 0.3 30.0
2016-Jun-26 13:00N 17°58' E 136°16'1 0.7 30.0
2016-Jun-26 12:00N 17°59' E 136°17'0 0.4 30.0
2016-Jun-26 11:00N 17°58' E 136°17'0 0.1 30.1
2016-Jun-26 10:00N 17°58' E 136°17'1 0.3 30.1
2016-Jun-26 08:00N 17°58' E 136°17'0 0.0 30.2
2016-Jun-26 07:00N 17°58' E 136°17'1 0.7 30.2
2016-Jun-26 05:00N 17°56' E 136°18'0 0.0 30.2
2016-Jun-26 04:00N 17°56' E 136°18'1 0.5 30.2
2016-Jun-26 01:00N 17°56' E 136°19'1 0.5 30.0
2016-Jun-25 23:00N 17°57' E 136°20'1 0.2 30.0
2016-Jun-25 19:00N 17°57' E 136°21'0 0.1 30.0
2016-Jun-25 18:00N 17°57' E 136°21'0 0.1 30.0
2016-Jun-25 17:00N 17°57' E 136°21'1 0.3 30.0
2016-Jun-25 13:00N 17°56' E 136°21'1 1.2 30.0
2016-Jun-25 12:00N 17°55' E 136°22'1 0.6 30.0
2016-Jun-25 11:00N 17°55' E 136°22'1 0.4 30.1
2016-Jun-25 08:00N 17°55' E 136°23'1 0.2 30.1
2016-Jun-25 05:00N 17°54' E 136°23'1 1.5 30.1
2016-Jun-25 04:00N 17°53' E 136°24'0 0.0 30.1
2016-Jun-25 03:00N 17°53' E 136°24'0 0.1 30.1
2016-Jun-25 01:00N 17°53' E 136°24'1 0.4 30.0
2016-Jun-24 23:00N 17°53' E 136°25'1 0.8 29.9
2016-Jun-24 22:00N 17°53' E 136°25'1 0.7 29.9
2016-Jun-24 21:00N 17°53' E 136°26'0 0.2 29.9
2016-Jun-24 18:00N 17°53' E 136°27'1 0.6 29.9
2016-Jun-24 17:00N 17°52' E 136°27'0 0.1 29.9
2016-Jun-24 16:00N 17°52' E 136°27'2 0.5 29.9
2016-Jun-24 12:00N 17°50' E 136°27'0 0.4 30.0
2016-Jun-24 11:00N 17°50' E 136°28'1 0.8 30.0
2016-Jun-24 10:00N 17°50' E 136°28'0 0.5 30.1
2016-Jun-24 09:00N 17°49' E 136°29'0 0.4 30.1
2016-Jun-24 08:00N 17°49' E 136°29'0 0.0 30.2
2016-Jun-24 07:00N 17°49' E 136°29'2 0.8 30.2
2016-Jun-24 05:00N 17°48' E 136°28'0 0.2 30.3
2016-Jun-24 04:00N 17°48' E 136°27'0 0.0 30.3
2016-Jun-24 03:00N 17°48' E 136°27'4 1.9 30.2
2016-Jun-24 01:00N 17°44' E 136°27'1 0.2 30.0
2016-Jun-23 22:00N 17°44' E 136°27'1 0.5 29.9
2016-Jun-23 21:00N 17°43' E 136°28'0 0.3 29.9
2016-Jun-23 20:00N 17°43' E 136°28'1 0.5 29.9
2016-Jun-23 19:00N 17°43' E 136°28'0 0.1 30.0
2016-Jun-23 18:00N 17°43' E 136°28'1 0.6 30.0
2016-Jun-23 17:00N 17°42' E 136°28'0 0.0 30.0
2016-Jun-23 16:00N 17°42' E 136°28'2 0.6 30.0
2016-Jun-23 13:00N 17°40' E 136°27'0 0.2 30.1
2016-Jun-23 12:00N 17°40' E 136°27'0 0.1 30.1
2016-Jun-23 11:00N 17°40' E 136°27'0 0.1 30.1
2016-Jun-23 09:00N 17°40' E 136°27'0 0.3 30.3
2016-Jun-23 08:00N 17°40' E 136°27'1 1.3 30.3
2016-Jun-23 07:00N 17°40' E 136°25'0 0.0 30.4
2016-Jun-23 06:00N 17°40' E 136°25'1 1.1 30.5
2016-Jun-23 05:00N 17°40' E 136°24'0 0.0 30.5
2016-Jun-23 04:00N 17°40' E 136°24'0 0.0 30.4
2016-Jun-23 03:00N 17°40' E 136°24'2 1.0 30.3
2016-Jun-23 01:00N 17°38' E 136°22'0 0.2 30.0
2016-Jun-23 00:00N 17°39' E 136°22'1 0.9 29.9
2016-Jun-22 23:00N 17°38' E 136°21'0 0.2 29.9
2016-Jun-22 21:00N 17°38' E 136°21'0 0.2 29.9
2016-Jun-22 20:00N 17°38' E 136°21'0 0.3 29.9
2016-Jun-22 19:00N 17°38' E 136°21'0 0.5 29.9
2016-Jun-22 18:00N 17°38' E 136°21'0 0.0 29.9
2016-Jun-22 17:00N 17°38' E 136°21'0 0.0 29.9
2016-Jun-22 16:00N 17°38' E 136°21'1 0.3 29.9
2016-Jun-22 12:00N 17°38' E 136°19'1 1.4 30.0
2016-Jun-22 11:00N 17°38' E 136°18'0 0.0 30.0
2016-Jun-22 10:00N 17°38' E 136°18'0 0.3 30.1
2016-Jun-22 09:00N 17°38' E 136°18'1 1.0 30.2
2016-Jun-22 08:00N 17°38' E 136°17'0 0.0 30.3
2016-Jun-22 07:00N 17°38' E 136°17'0 0.1 30.3
2016-Jun-22 06:00N 17°38' E 136°17'1 0.5 30.3
2016-Jun-22 05:00N 17°38' E 136°16'0 0.0 30.4
2016-Jun-22 04:00N 17°38' E 136°16'2 0.5 30.4
2016-Jun-22 00:00N 17°39' E 136°14'0 0.1 29.8
2016-Jun-21 21:00N 17°39' E 136°14'1 0.5 29.8
2016-Jun-21 19:00N 17°39' E 136°13'0 0.0 29.8
2016-Jun-21 18:00N 17°39' E 136°13'   29.8
Track history (hours):
 
Tides and Currents Weather Stations Pressure Air Temp Water Temp Dewpoint Dewpoint Depression Visibility Wind Speed Wind Dir Waves Ship Positions

Drifting buoy 51627

Last reported at 2016-Jul-01 17:00 UTC. Time now 2016-Jul-01 19:01 UTC.
Position N 18°01' E 135°28'.

Water temperature 30.1 ° C

Date/timePositionNaut miles runAvg speedWind from/ knotsBaromVisibWave heightAir tempDewpointWater temp
2016-Jul-01 17:00N 18°01' E 135°28'0 0.0 30.1
2016-Jul-01 16:00N 18°01' E 135°28'1 0.5 30.1
2016-Jul-01 13:00N 18°02' E 135°29'1 0.5 30.2
2016-Jul-01 12:00N 18°02' E 135°30'0 0.4 30.3
2016-Jul-01 11:00N 18°01' E 135°30'1 0.6 30.3
2016-Jul-01 10:00N 18°01' E 135°30'0 0.2 30.3
2016-Jul-01 09:00N 18°01' E 135°30'1 0.7 30.4
2016-Jul-01 08:00N 18°00' E 135°31'2 1.7 30.4
2016-Jul-01 07:00N 17°60' E 135°32'2 1.7 30.5
2016-Jul-01 06:00N 17°60' E 135°34'0 0.0 30.5
2016-Jul-01 05:00N 17°60' E 135°34'0 0.0 30.4
2016-Jul-01 04:00N 17°60' E 135°34'3 0.9 30.3
2016-Jul-01 01:00N 18°01' E 135°37'1 0.7 30.1
2016-Jul-01 00:00N 18°01' E 135°37'1 0.8 30.1
2016-Jun-30 23:00N 18°02' E 135°38'0 0.2 30.0
2016-Jun-30 21:00N 18°02' E 135°38'1 0.7 30.0
2016-Jun-30 20:00N 18°03' E 135°39'0 0.4 30.0
2016-Jun-30 19:00N 18°03' E 135°38'1 0.8 30.0
2016-Jun-30 18:00N 18°03' E 135°39'0 0.2 30.0
2016-Jun-30 17:00N 18°03' E 135°39'0 0.0 30.0
2016-Jun-30 16:00N 18°03' E 135°39'2 0.7 30.0
2016-Jun-30 13:00N 18°04' E 135°40'0 0.4 30.1
2016-Jun-30 12:00N 18°04' E 135°41'0 0.0 30.1
2016-Jun-30 11:00N 18°04' E 135°41'1 0.4 30.1
2016-Jun-30 09:00N 18°04' E 135°41'2 1.8 30.1
2016-Jun-30 08:00N 18°03' E 135°43'0 0.0 30.2
2016-Jun-30 07:00N 18°03' E 135°43'1 0.7 30.2
2016-Jun-30 06:00N 18°03' E 135°44'2 0.9 30.2
2016-Jun-30 04:00N 18°03' E 135°46'0 0.0 30.2
2016-Jun-30 01:00N 18°03' E 135°46'0 0.5 30.0
2016-Jun-30 00:00N 18°03' E 135°46'1 0.6 30.0
2016-Jun-29 23:00N 18°03' E 135°47'0 0.2 30.0
2016-Jun-29 22:00N 18°03' E 135°47'1 0.7 30.0
2016-Jun-29 21:00N 18°03' E 135°47'1 0.8 30.0
2016-Jun-29 20:00N 18°03' E 135°48'0 0.0 30.0
2016-Jun-29 19:00N 18°03' E 135°48'1 0.6 30.0
2016-Jun-29 17:00N 18°04' E 135°49'1 0.2 30.0
2016-Jun-29 12:00N 18°04' E 135°50'0 0.5 30.0
2016-Jun-29 11:00N 18°04' E 135°50'0 0.4 30.0
2016-Jun-29 10:00N 18°04' E 135°51'1 1.0 30.1
2016-Jun-29 09:00N 18°03' E 135°52'1 1.1 30.1
2016-Jun-29 08:00N 18°03' E 135°53'1 1.1 30.2
2016-Jun-29 07:00N 18°03' E 135°54'1 1.0 30.2
2016-Jun-29 06:00N 18°03' E 135°55'0 0.0 30.2
2016-Jun-29 05:00N 18°03' E 135°55'0 0.0 30.2
2016-Jun-29 04:00N 18°03' E 135°55'1 0.5 30.2
2016-Jun-29 01:00N 18°03' E 135°56'0 0.1 30.0
2016-Jun-29 00:00N 18°03' E 135°56'0 0.0 29.9
2016-Jun-28 23:00N 18°03' E 135°56'0 0.2 29.9
2016-Jun-28 22:00N 18°03' E 135°57'0 0.3 29.9
2016-Jun-28 21:00N 18°03' E 135°57'0 0.3 29.9
2016-Jun-28 20:00N 18°03' E 135°57'0 0.3 29.9
2016-Jun-28 19:00N 18°03' E 135°57'1 0.5 29.9
2016-Jun-28 17:00N 18°03' E 135°58'2 0.2 29.9
2016-Jun-28 08:00N 18°02' E 136°00'0 0.4 30.0
2016-Jun-28 07:00N 18°02' E 136°00'2 0.5 30.1
2016-Jun-28 04:00N 18°01' E 136°02'2 0.5 30.0
2016-Jun-28 00:00N 18°02' E 136°04'1 0.3 29.9
2016-Jun-27 22:00N 18°01' E 136°05'0 0.0 29.9
2016-Jun-27 21:00N 18°01' E 136°05'1 0.9 29.9
2016-Jun-27 20:00N 18°01' E 136°06'0 0.0 29.9
2016-Jun-27 19:00N 18°01' E 136°06'0 0.0 29.9
2016-Jun-27 18:00N 18°01' E 136°06'0 0.1 29.9
2016-Jun-27 17:00N 18°01' E 136°06'2 0.6 29.9
2016-Jun-27 13:00N 18°02' E 136°08'0 0.2 29.9
2016-Jun-27 12:00N 18°02' E 136°08'1 0.6 30.0
2016-Jun-27 11:00N 18°01' E 136°08'0 0.0 30.0
2016-Jun-27 10:00N 18°01' E 136°08'0 0.5 30.1
2016-Jun-27 09:00N 18°01' E 136°09'1 0.9 30.1
2016-Jun-27 08:00N 18°00' E 136°08'5 1.6 30.1
2016-Jun-27 05:00N 17°58' E 136°13'2 0.2 30.2
2016-Jun-26 21:00N 17°58' E 136°15'0 0.1 30.0
2016-Jun-26 20:00N 17°58' E 136°15'1 0.3 30.0
2016-Jun-26 18:00N 17°58' E 136°15'0 0.0 30.0
2016-Jun-26 17:00N 17°58' E 136°15'1 0.3 30.0
2016-Jun-26 13:00N 17°58' E 136°16'1 0.7 30.0
2016-Jun-26 12:00N 17°59' E 136°17'0 0.4 30.0
2016-Jun-26 11:00N 17°58' E 136°17'0 0.1 30.1
2016-Jun-26 10:00N 17°58' E 136°17'1 0.3 30.1
2016-Jun-26 08:00N 17°58' E 136°17'0 0.0 30.2
2016-Jun-26 07:00N 17°58' E 136°17'1 0.7 30.2
2016-Jun-26 05:00N 17°56' E 136°18'0 0.0 30.2
2016-Jun-26 04:00N 17°56' E 136°18'1 0.5 30.2
2016-Jun-26 01:00N 17°56' E 136°19'1 0.5 30.0
2016-Jun-25 23:00N 17°57' E 136°20'1 0.2 30.0
2016-Jun-25 19:00N 17°57' E 136°21'0 0.1 30.0
2016-Jun-25 18:00N 17°57' E 136°21'0 0.1 30.0
2016-Jun-25 17:00N 17°57' E 136°21'1 0.3 30.0
2016-Jun-25 13:00N 17°56' E 136°21'1 1.2 30.0
2016-Jun-25 12:00N 17°55' E 136°22'1 0.6 30.0
2016-Jun-25 11:00N 17°55' E 136°22'1 0.4 30.1
2016-Jun-25 08:00N 17°55' E 136°23'1 0.2 30.1
2016-Jun-25 05:00N 17°54' E 136°23'1 1.5 30.1
2016-Jun-25 04:00N 17°53' E 136°24'0 0.0 30.1
2016-Jun-25 03:00N 17°53' E 136°24'0 0.1 30.1
2016-Jun-25 01:00N 17°53' E 136°24'1 0.4 30.0
2016-Jun-24 23:00N 17°53' E 136°25'1 0.8 29.9
2016-Jun-24 22:00N 17°53' E 136°25'1 0.7 29.9
2016-Jun-24 21:00N 17°53' E 136°26'0 0.2 29.9
2016-Jun-24 18:00N 17°53' E 136°27'1 0.6 29.9
2016-Jun-24 17:00N 17°52' E 136°27'0 0.1 29.9
2016-Jun-24 16:00N 17°52' E 136°27'2 0.5 29.9
2016-Jun-24 12:00N 17°50' E 136°27'0 0.4 30.0
2016-Jun-24 11:00N 17°50' E 136°28'1 0.8 30.0
2016-Jun-24 10:00N 17°50' E 136°28'0 0.5 30.1
2016-Jun-24 09:00N 17°49' E 136°29'0 0.4 30.1
2016-Jun-24 08:00N 17°49' E 136°29'0 0.0 30.2
2016-Jun-24 07:00N 17°49' E 136°29'2 0.8 30.2
2016-Jun-24 05:00N 17°48' E 136°28'0 0.2 30.3
2016-Jun-24 04:00N 17°48' E 136°27'0 0.0 30.3
2016-Jun-24 03:00N 17°48' E 136°27'4 1.9 30.2
2016-Jun-24 01:00N 17°44' E 136°27'1 0.2 30.0
2016-Jun-23 22:00N 17°44' E 136°27'1 0.5 29.9
2016-Jun-23 21:00N 17°43' E 136°28'0 0.3 29.9
2016-Jun-23 20:00N 17°43' E 136°28'1 0.5 29.9
2016-Jun-23 19:00N 17°43' E 136°28'0 0.1 30.0
2016-Jun-23 18:00N 17°43' E 136°28'1 0.6 30.0
2016-Jun-23 17:00N 17°42' E 136°28'0 0.0 30.0
2016-Jun-23 16:00N 17°42' E 136°28'2 0.6 30.0
2016-Jun-23 13:00N 17°40' E 136°27'0 0.2 30.1
2016-Jun-23 12:00N 17°40' E 136°27'0 0.1 30.1
2016-Jun-23 11:00N 17°40' E 136°27'0 0.1 30.1
2016-Jun-23 09:00N 17°40' E 136°27'0 0.3 30.3
2016-Jun-23 08:00N 17°40' E 136°27'1 1.3 30.3
2016-Jun-23 07:00N 17°40' E 136°25'0 0.0 30.4
2016-Jun-23 06:00N 17°40' E 136°25'1 1.1 30.5
2016-Jun-23 05:00N 17°40' E 136°24'0 0.0 30.5
2016-Jun-23 04:00N 17°40' E 136°24'0 0.0 30.4
2016-Jun-23 03:00N 17°40' E 136°24'2 1.0 30.3
2016-Jun-23 01:00N 17°38' E 136°22'0 0.2 30.0
2016-Jun-23 00:00N 17°39' E 136°22'1 0.9 29.9
2016-Jun-22 23:00N 17°38' E 136°21'0 0.2 29.9
2016-Jun-22 21:00N 17°38' E 136°21'0 0.2 29.9
2016-Jun-22 20:00N 17°38' E 136°21'0 0.3 29.9
2016-Jun-22 19:00N 17°38' E 136°21'0 0.5 29.9
2016-Jun-22 18:00N 17°38' E 136°21'0 0.0 29.9
2016-Jun-22 17:00N 17°38' E 136°21'0 0.0 29.9
2016-Jun-22 16:00N 17°38' E 136°21'1 0.3 29.9
2016-Jun-22 12:00N 17°38' E 136°19'1 1.4 30.0
2016-Jun-22 11:00N 17°38' E 136°18'0 0.0 30.0
2016-Jun-22 10:00N 17°38' E 136°18'0 0.3 30.1
2016-Jun-22 09:00N 17°38' E 136°18'1 1.0 30.2
2016-Jun-22 08:00N 17°38' E 136°17'0 0.0 30.3
2016-Jun-22 07:00N 17°38' E 136°17'0 0.1 30.3
2016-Jun-22 06:00N 17°38' E 136°17'1 0.5 30.3
2016-Jun-22 05:00N 17°38' E 136°16'0 0.0 30.4
2016-Jun-22 04:00N 17°38' E 136°16'2 0.5 30.4
2016-Jun-22 00:00N 17°39' E 136°14'0 0.1 29.8
2016-Jun-21 21:00N 17°39' E 136°14'1 0.5 29.8
2016-Jun-21 19:00N 17°39' E 136°13'0 0.0 29.8
2016-Jun-21 18:00N 17°39' E 136°13'   29.8

Dump ship's entire track history